Time;durP1;ratioP1;P1;durP2;ratioP2;P2;SDS_P1;SDS_P2;PMS_P1;PMS_P2;Temp;Humidity;BMP_temperature;BMP_pressure;BME280_temperature;BME280_humidity;BME280_pressure;Samples;Min_cycle;Max_cycle;Signal;HPM_P1;HPM_P2
2021/06/20 00:05:49;;;;;;;;;13.33;13.33;;;;;;;;8823218;40;10217;-60
2021/06/20 00:11:51;;;;;;;;;14.67;12.00;;;;;;;;8823198;40;10047;-60
2021/06/20 00:17:53;;;;;;;;;13.67;13.33;;;;;;;;8823794;40;10338;-61
2021/06/20 00:23:58;;;;;;;;;12.33;12.33;;;;;;;;8822461;40;10195;-60
2021/06/20 00:30:00;;;;;;;;;18.67;18.00;;;;;;;;8823625;40;10008;-61
2021/06/20 00:36:02;;;;;;;;;16.67;16.67;;;;;;;;8823009;40;10932;-61
2021/06/20 00:42:04;;;;;;;;;14.67;14.67;;;;;;;;8822997;40;10037;-61
2021/06/20 00:48:06;;;;;;;;;15.00;15.00;;;;;;;;8824355;40;10633;-61
2021/06/20 00:54:08;;;;;;;;;13.33;12.33;;;;;;;;8822046;40;10229;-62
2021/06/20 01:00:11;;;;;;;;;15.33;15.00;;;;;;;;8823109;40;10230;-60
2021/06/20 01:06:14;;;;;;;;;13.67;13.67;;;;;;;;8823735;40;10362;-60
2021/06/20 01:12:19;;;;;;;;;15.33;14.00;;;;;;;;8822069;40;10269;-61
2021/06/20 01:18:21;;;;;;;;;14.33;14.33;;;;;;;;8822910;40;10697;-62
2021/06/20 01:24:23;;;;;;;;;16.00;15.67;;;;;;;;8823036;40;10657;-61
2021/06/20 01:30:31;;;;;;;;;12.33;12.33;;;;;;;;8822292;40;10959;-62
2021/06/20 01:36:33;;;;;;;;;15.33;15.33;;;;;;;;8821864;40;10221;-62
2021/06/20 01:42:35;;;;;;;;;18.67;17.67;;;;;;;;8822786;40;10477;-61
2021/06/20 01:48:36;;;;;;;;;18.33;14.00;;;;;;;;8822574;40;10137;-61
2021/06/20 01:54:50;;;;;;;;;19.33;18.00;;;;;;;;8822168;40;10032;-61
2021/06/20 02:00:53;;;;;;;;;21.00;17.67;;;;;;;;8821858;40;10899;-61
2021/06/20 02:06:55;;;;;;;;;15.33;15.33;;;;;;;;8822113;40;10010;-60
2021/06/20 02:12:57;;;;;;;;;20.33;19.33;;;;;;;;8822189;40;10032;-60
2021/06/20 02:18:59;;;;;;;;;18.00;18.00;;;;;;;;8823915;40;10132;-61
2021/06/20 02:25:01;;;;;;;;;18.00;16.33;;;;;;;;8825644;40;10119;-61
2021/06/20 02:31:02;;;;;;;;;18.00;16.33;;;;;;;;8825112;40;10164;-60
2021/06/20 02:37:06;;;;;;;;;17.33;17.33;;;;;;;;8826672;40;10573;-62
2021/06/20 02:43:08;;;;;;;;;19.67;16.67;;;;;;;;8824750;40;9956;-61
2021/06/20 02:49:10;;;;;;;;;12.00;12.00;;;;;;;;8825218;40;10040;-61
2021/06/20 02:55:12;;;;;;;;;13.00;13.00;;;;;;;;8824001;40;10644;-61
2021/06/20 03:01:14;;;;;;;;;16.33;15.67;;;;;;;;8824703;40;10151;-61
2021/06/20 03:07:16;;;;;;;;;15.00;15.00;;;;;;;;8825352;40;10582;-61
2021/06/20 03:13:18;;;;;;;;;17.67;17.67;;;;;;;;8824104;40;10029;-61
2021/06/20 03:19:19;;;;;;;;;17.00;17.00;;;;;;;;8825797;40;9990;-60
2021/06/20 03:25:22;;;;;;;;;20.33;18.33;;;;;;;;8824677;40;10023;-61
2021/06/20 03:31:24;;;;;;;;;17.67;17.33;;;;;;;;8824409;40;10021;-61
2021/06/20 03:37:26;;;;;;;;;19.00;19.00;;;;;;;;8824432;40;11145;-61
2021/06/20 03:43:28;;;;;;;;;20.67;17.33;;;;;;;;8823096;40;9936;-61
2021/06/20 03:49:30;;;;;;;;;21.00;20.67;;;;;;;;8823934;40;10091;-61
2021/06/20 03:55:32;;;;;;;;;18.00;16.00;;;;;;;;8822946;40;10251;-61
2021/06/20 04:01:33;;;;;;;;;16.00;15.33;;;;;;;;8823003;40;10049;-61
2021/06/20 04:07:37;;;;;;;;;19.00;18.33;;;;;;;;8823947;40;10219;-61
2021/06/20 04:13:39;;;;;;;;;17.00;17.00;;;;;;;;8823194;40;9997;-60
2021/06/20 04:19:41;;;;;;;;;20.33;19.67;;;;;;;;8823144;40;11613;-61
2021/06/20 04:25:43;;;;;;;;;18.00;16.67;;;;;;;;8822726;40;10079;-61
2021/06/20 04:31:46;;;;;;;;;18.67;17.33;;;;;;;;8823545;40;10032;-61
2021/06/20 04:37:49;;;;;;;;;19.67;18.00;;;;;;;;8822430;40;10054;-61
2021/06/20 04:49:53;;;;;;;;;16.67;15.33;;;;;;;;8823736;40;10420;-60
2021/06/20 04:55:55;;;;;;;;;15.00;15.00;;;;;;;;8822501;40;10743;-61
2021/06/20 05:01:57;;;;;;;;;15.50;15.25;;;;;;;;8823025;40;11055;-61
2021/06/20 05:08:00;;;;;;;;;15.00;14.50;;;;;;;;8821736;40;10822;-61
2021/06/20 05:14:02;;;;;;;;;14.00;14.00;;;;;;;;8823071;40;11606;-62
2021/06/20 05:20:05;;;;;;;;;18.25;16.50;;;;;;;;8823357;40;10971;-61
2021/06/20 05:26:07;;;;;;;;;16.75;15.75;;;;;;;;8821364;40;10741;-61
2021/06/20 05:32:08;;;;;;;;;12.00;12.00;;;;;;;;8822458;40;10761;-60
2021/06/20 05:38:10;;;;;;;;;17.75;16.75;;;;;;;;8824082;40;10595;-62
2021/06/20 05:44:12;;;;;;;;;13.00;12.75;;;;;;;;8823147;40;10786;-62
2021/06/20 05:50:14;;;;;;;;;14.25;13.50;;;;;;;;8822116;40;10562;-62
2021/06/20 05:56:16;;;;;;;;;14.00;14.00;;;;;;;;8826089;40;10749;-61
2021/06/20 06:02:17;;;;;;;;;14.50;14.50;;;;;;;;8824682;40;10918;-60
2021/06/20 06:08:19;;;;;;;;;14.50;14.50;;;;;;;;8806128;40;10697;-60
2021/06/20 06:14:21;;;;;;;;;13.00;11.25;;;;;;;;8824945;40;10868;-62
2021/06/20 06:20:24;;;;;;;;;12.75;12.75;;;;;;;;8827047;40;10652;-61
2021/06/20 06:26:25;;;;;;;;;15.25;13.25;;;;;;;;8825147;40;10675;-61
2021/06/20 06:32:27;;;;;;;;;14.00;12.75;;;;;;;;8825155;40;11473;-61
2021/06/20 06:38:29;;;;;;;;;24.00;18.75;;;;;;;;8825871;40;11104;-63
2021/06/20 06:44:31;;;;;;;;;15.50;15.50;;;;;;;;8824356;40;10624;-62
2021/06/20 06:50:33;;;;;;;;;14.25;13.00;;;;;;;;8826135;40;11412;-63
2021/06/20 06:56:35;;;;;;;;;17.75;15.00;;;;;;;;8824068;40;10591;-62
2021/06/20 07:02:37;;;;;;;;;15.50;13.75;;;;;;;;8824805;40;10522;-62
2021/06/20 07:08:39;;;;;;;;;14.25;12.25;;;;;;;;8824283;40;10487;-60
2021/06/20 07:14:41;;;;;;;;;14.00;13.25;;;;;;;;8823565;40;10472;-62
2021/06/20 07:20:42;;;;;;;;;13.25;10.00;;;;;;;;8824566;40;10562;-63
2021/06/20 07:26:44;;;;;;;;;13.00;11.50;;;;;;;;8823881;40;10434;-62
2021/06/20 07:32:47;;;;;;;;;10.25;10.25;;;;;;;;8824944;40;11318;-63
2021/06/20 07:38:48;;;;;;;;;12.75;11.75;;;;;;;;8824758;40;10538;-61
2021/06/20 07:44:51;;;;;;;;;13.50;12.50;;;;;;;;8824137;40;10551;-62
2021/06/20 07:50:53;;;;;;;;;13.25;13.25;;;;;;;;8823853;40;10577;-61
2021/06/20 07:56:55;;;;;;;;;11.75;11.00;;;;;;;;8823200;40;10540;-61
2021/06/20 08:02:57;;;;;;;;;10.25;10.25;;;;;;;;8822513;40;10477;-63
2021/06/20 08:08:59;;;;;;;;;14.00;12.00;;;;;;;;8823238;40;10982;-61
2021/06/20 08:15:01;;;;;;;;;16.25;14.00;;;;;;;;8823422;40;10698;-63
2021/06/20 08:21:03;;;;;;;;;12.75;11.25;;;;;;;;8823673;40;10611;-63
2021/06/20 08:27:06;;;;;;;;;11.25;11.25;;;;;;;;8823731;40;10591;-62
2021/06/20 08:33:08;;;;;;;;;11.25;11.25;;;;;;;;8823520;40;10480;-62
2021/06/20 08:39:10;;;;;;;;;13.25;13.25;;;;;;;;8823162;40;10454;-61
2021/06/20 08:45:14;;;;;;;;;14.25;13.25;;;;;;;;8822556;40;10640;-61
2021/06/20 08:51:17;;;;;;;;;11.00;11.00;;;;;;;;8800202;40;10430;-62
2021/06/20 08:57:19;;;;;;;;;14.25;13.75;;;;;;;;8823490;40;11800;-61
2021/06/20 09:03:21;;;;;;;;;16.25;16.25;;;;;;;;8822911;40;11191;-62
2021/06/20 09:09:28;;;;;;;;;7.50;7.50;;;;;;;;8823285;40;10371;-62
2021/06/20 09:15:34;;;;;;;;;9.00;9.00;;;;;;;;8822452;40;10389;-62
2021/06/20 09:21:36;;;;;;;;;12.00;12.00;;;;;;;;8823481;40;11000;-61
2021/06/20 09:27:38;;;;;;;;;12.25;12.00;;;;;;;;8824827;40;10387;-62
2021/06/20 09:33:39;;;;;;;;;15.50;14.50;;;;;;;;8824637;40;10449;-62
2021/06/20 09:39:41;;;;;;;;;14.75;13.25;;;;;;;;8825864;40;10703;-63
2021/06/20 09:45:47;;;;;;;;;12.00;12.00;;;;;;;;8824280;40;10481;-63
2021/06/20 09:51:59;;;;;;;;;8.75;8.75;;;;;;;;8826533;40;10365;-62
2021/06/20 09:58:03;;;;;;;;;12.50;10.50;;;;;;;;8825213;40;10368;-62
2021/06/20 10:04:05;;;;;;;;;12.75;12.25;;;;;;;;8825129;40;10502;-62
2021/06/20 10:10:09;;;;;;;;;14.25;14.25;;;;;;;;8826114;40;10541;-62
2021/06/20 10:16:16;;;;;;;;;14.25;12.50;;;;;;;;8823518;40;10661;-62
2021/06/20 10:22:19;;;;;;;;;9.00;9.00;;;;;;;;8826434;40;10569;-63
2021/06/20 10:28:23;;;;;;;;;15.00;15.00;;;;;;;;8825770;40;10489;-61
2021/06/20 10:34:31;;;;;;;;;13.50;10.75;;;;;;;;8825470;40;10579;-63
2021/06/20 10:40:42;;;;;;;;;11.50;11.50;;;;;;;;8825195;40;10590;-64
2021/06/20 10:46:53;;;;;;;;;13.00;10.50;;;;;;;;8825841;40;10632;-64
2021/06/20 10:52:58;;;;;;;;;21.25;16.75;;;;;;;;8824885;40;10706;-62
2021/06/20 10:59:00;;;;;;;;;9.75;9.75;;;;;;;;8823649;40;10550;-62
2021/06/20 11:05:03;;;;;;;;;10.50;9.00;;;;;;;;8825467;40;10471;-62
2021/06/20 11:11:06;;;;;;;;;13.75;13.00;;;;;;;;8824867;40;10976;-62
2021/06/20 11:17:08;;;;;;;;;12.25;12.25;;;;;;;;8824878;40;10667;-63
2021/06/20 11:23:10;;;;;;;;;12.50;12.50;;;;;;;;8824417;40;11805;-62
2021/06/20 11:29:12;;;;;;;;;16.25;16.25;;;;;;;;8823960;40;10787;-61
2021/06/20 11:35:16;;;;;;;;;15.75;13.25;;;;;;;;8825613;40;11208;-63
2021/06/20 11:41:23;;;;;;;;;16.00;16.00;;;;;;;;8823225;40;10606;-62
2021/06/20 11:47:44;;;;;;;;;18.00;17.50;;;;;;;;8825125;40;10686;-61
2021/06/20 11:53:46;;;;;;;;;24.00;18.75;;;;;;;;8824324;40;10562;-63
2021/06/20 11:59:48;;;;;;;;;19.00;19.00;;;;;;;;8823478;40;10563;-62
2021/06/20 12:06:02;;;;;;;;;26.00;21.00;;;;;;;;8824534;40;10644;-62
2021/06/20 12:12:07;;;;;;;;;17.75;16.75;;;;;;;;8822869;40;10535;-63
2021/06/20 12:18:14;;;;;;;;;22.00;19.75;;;;;;;;8830024;40;11065;-61
2021/06/20 12:24:17;;;;;;;;;17.00;15.75;;;;;;;;8823287;40;11326;-62
2021/06/20 12:30:22;;;;;;;;;13.75;12.75;;;;;;;;8823138;40;11545;-63
2021/06/20 12:36:28;;;;;;;;;22.25;20.75;;;;;;;;8823563;40;10673;-61
2021/06/20 12:42:30;;;;;;;;;22.25;19.75;;;;;;;;8821421;40;10579;-63
2021/06/20 12:48:39;;;;;;;;;19.00;19.00;;;;;;;;8823347;40;10706;-64
2021/06/20 12:55:04;;;;;;;;;27.00;22.00;;;;;;;;8822381;40;10503;-62
2021/06/20 13:01:07;;;;;;;;;15.25;15.25;;;;;;;;8822151;40;11089;-63
2021/06/20 13:07:10;;;;;;;;;18.75;16.00;;;;;;;;8823144;40;10574;-62
2021/06/20 13:13:13;;;;;;;;;16.25;15.25;;;;;;;;8822476;40;10596;-62
2021/06/20 13:19:16;;;;;;;;;15.00;15.00;;;;;;;;8821503;40;10518;-62
2021/06/20 13:25:18;;;;;;;;;12.50;11.25;;;;;;;;8822517;40;10444;-62
2021/06/20 13:31:21;;;;;;;;;16.75;15.00;;;;;;;;8822829;40;10534;-61
2021/06/20 13:37:24;;;;;;;;;13.25;11.75;;;;;;;;8821315;40;10451;-61
2021/06/20 13:43:26;;;;;;;;;9.50;8.00;;;;;;;;8821912;40;10405;-62
2021/06/20 13:49:28;;;;;;;;;10.00;10.00;;;;;;;;8823346;40;10666;-63
2021/06/20 13:55:30;;;;;;;;;10.75;10.75;;;;;;;;8821488;40;10536;-64
2021/06/20 14:01:32;;;;;;;;;5.00;5.00;;;;;;;;8820590;40;10339;-62
2021/06/20 14:07:37;;;;;;;;;12.50;11.00;;;;;;;;8822114;40;10552;-61
2021/06/20 14:13:39;;;;;;;;;8.00;8.00;;;;;;;;8822642;40;10363;-61
2021/06/20 14:19:41;;;;;;;;;7.50;7.50;;;;;;;;8825484;40;10327;-61
2021/06/20 14:25:43;;;;;;;;;9.00;9.00;;;;;;;;8824521;40;10721;-62
2021/06/20 14:31:47;;;;;;;;;11.25;10.50;;;;;;;;8825519;40;10710;-61
2021/06/20 14:37:49;;;;;;;;;12.50;10.00;;;;;;;;8826008;40;10400;-63
2021/06/20 14:43:53;;;;;;;;;12.50;12.50;;;;;;;;8825285;40;10502;-62
2021/06/20 14:49:55;;;;;;;;;11.00;10.25;;;;;;;;8826079;40;10426;-62
2021/06/20 14:55:57;;;;;;;;;12.75;11.00;;;;;;;;8824187;40;10588;-62
2021/06/20 15:01:59;;;;;;;;;9.00;9.00;;;;;;;;8825168;40;10574;-62
2021/06/20 15:08:01;;;;;;;;;14.75;13.25;;;;;;;;8825311;40;10948;-61
2021/06/20 15:14:03;;;;;;;;;13.50;13.00;;;;;;;;8824941;40;10528;-62
2021/06/20 15:20:06;;;;;;;;;13.25;13.25;;;;;;;;8824330;40;10560;-62
2021/06/20 15:26:09;;;;;;;;;12.50;11.75;;;;;;;;8824228;40;10520;-62
2021/06/20 15:32:17;;;;;;;;;16.00;13.50;;;;;;;;8826037;40;10445;-62
2021/06/20 15:38:43;;;;;;;;;14.50;13.00;;;;;;;;8823431;40;10596;-63
2021/06/20 15:44:45;;;;;;;;;12.00;11.00;;;;;;;;8830988;40;10455;-62
2021/06/20 15:50:47;;;;;;;;;10.00;10.00;;;;;;;;8825526;40;10396;-63
2021/06/20 15:56:49;;;;;;;;;12.25;12.25;;;;;;;;8822927;40;10486;-62
2021/06/20 16:02:52;;;;;;;;;14.00;14.00;;;;;;;;8823989;40;11064;-63
2021/06/20 16:08:54;;;;;;;;;11.25;11.25;;;;;;;;8823337;40;10459;-63
2021/06/20 16:14:56;;;;;;;;;15.00;11.50;;;;;;;;8823741;40;10488;-63
2021/06/20 16:20:58;;;;;;;;;10.75;10.75;;;;;;;;8823674;40;10427;-62
2021/06/20 16:27:01;;;;;;;;;13.75;11.75;;;;;;;;8822742;40;10597;-62
2021/06/20 16:33:03;;;;;;;;;15.25;14.75;;;;;;;;8823397;40;10675;-62
2021/06/20 16:39:05;;;;;;;;;15.00;13.50;;;;;;;;8821941;40;10534;-62
2021/06/20 16:45:09;;;;;;;;;10.00;9.00;;;;;;;;8824067;40;11489;-62
2021/06/20 16:51:14;;;;;;;;;12.50;12.00;;;;;;;;8823114;40;10384;-60
2021/06/20 16:57:16;;;;;;;;;13.50;11.00;;;;;;;;8823696;40;10550;-62
2021/06/20 17:03:18;;;;;;;;;5.00;5.00;;;;;;;;8821984;40;10640;-62
2021/06/20 17:09:20;;;;;;;;;11.50;11.50;;;;;;;;8822640;40;10386;-62
2021/06/20 17:15:22;;;;;;;;;12.00;12.00;;;;;;;;8824390;40;10560;-62
2021/06/20 17:21:24;;;;;;;;;18.25;16.00;;;;;;;;8822450;40;10675;-61
2021/06/20 17:27:26;;;;;;;;;12.50;11.50;;;;;;;;8822851;40;10564;-62
2021/06/20 17:33:28;;;;;;;;;14.00;12.25;;;;;;;;8823683;40;11346;-61
2021/06/20 17:39:30;;;;;;;;;17.75;17.50;;;;;;;;8821923;40;11215;-63
2021/06/20 17:45:35;;;;;;;;;24.75;21.50;;;;;;;;8822081;40;10766;-62
2021/06/20 17:51:37;;;;;;;;;19.25;18.25;;;;;;;;8825677;40;11684;-61
2021/06/20 17:57:39;;;;;;;;;17.50;17.00;;;;;;;;8825515;40;10848;-62
2021/06/20 18:03:43;;;;;;;;;22.75;19.75;;;;;;;;8819401;40;10907;-63
2021/06/20 18:09:45;;;;;;;;;26.00;18.50;;;;;;;;8824900;40;10985;-63
2021/06/20 18:15:47;;;;;;;;;24.67;23.33;;;;;;;;8824884;40;10599;-62
2021/06/20 18:21:50;;;;;;;;;25.50;24.75;;;;;;;;8825040;40;11121;-62
2021/06/20 18:27:52;;;;;;;;;20.67;19.33;;;;;;;;8822871;40;10458;-63
2021/06/20 18:33:54;;;;;;;;;9.75;9.00;;;;;;;;8823953;40;10924;-61
2021/06/20 18:39:56;;;;;;;;;22.75;20.75;;;;;;;;8824607;40;10971;-62
2021/06/20 18:45:58;;;;;;;;;17.75;17.00;;;;;;;;8825069;40;11133;-62
2021/06/20 18:52:01;;;;;;;;;19.25;18.25;;;;;;;;8824979;40;10897;-62
2021/06/20 18:58:04;;;;;;;;;20.75;20.75;;;;;;;;8824549;40;11379;-62
2021/06/20 19:04:06;;;;;;;;;23.00;23.00;;;;;;;;8824657;40;11002;-63
2021/06/20 19:10:12;;;;;;;;;22.00;22.00;;;;;;;;8824470;40;10791;-62
2021/06/20 19:16:18;;;;;;;;;26.00;26.00;;;;;;;;8824023;40;10961;-63
2021/06/20 19:22:22;;;;;;;;;25.00;25.00;;;;;;;;8823892;40;10947;-61
2021/06/20 19:28:24;;;;;;;;;36.00;28.67;;;;;;;;8824390;40;10718;-61
2021/06/20 19:34:25;;;;;;;;;30.67;29.33;;;;;;;;8824555;40;10092;-62
2021/06/20 19:40:29;;;;;;;;;31.67;29.00;;;;;;;;8823906;40;10487;-61
2021/06/20 19:46:32;;;;;;;;;34.00;29.67;;;;;;;;8824826;40;10710;-62
2021/06/20 19:52:34;;;;;;;;;28.67;28.00;;;;;;;;8822764;40;10608;-60
2021/06/20 19:58:36;;;;;;;;;36.33;33.67;;;;;;;;8824668;40;10562;-62
2021/06/20 20:04:38;;;;;;;;;40.00;37.00;;;;;;;;8824178;40;10061;-62
2021/06/20 20:10:40;;;;;;;;;23.67;22.67;;;;;;;;8822447;40;11051;-62
2021/06/20 20:16:42;;;;;;;;;29.00;28.67;;;;;;;;8823641;40;10648;-63
2021/06/20 20:22:45;;;;;;;;;32.67;28.33;;;;;;;;8823156;40;10856;-62
2021/06/20 20:28:47;;;;;;;;;29.33;27.00;;;;;;;;8813495;40;10356;-61
2021/06/20 20:34:50;;;;;;;;;31.00;29.67;;;;;;;;8823195;40;10576;-62
2021/06/20 20:40:52;;;;;;;;;31.67;28.33;;;;;;;;8823868;40;10663;-62
2021/06/20 20:46:55;;;;;;;;;34.67;33.33;;;;;;;;8822726;40;10387;-62
2021/06/20 20:52:57;;;;;;;;;31.67;31.00;;;;;;;;8821784;40;10054;-61
2021/06/20 20:59:00;;;;;;;;;32.00;30.00;;;;;;;;8822967;40;10491;-62
2021/06/20 21:05:03;;;;;;;;;38.33;35.33;;;;;;;;8823182;40;10041;-62
2021/06/20 21:11:05;;;;;;;;;35.67;30.67;;;;;;;;8823528;40;10070;-61
2021/06/20 21:17:07;;;;;;;;;36.67;35.67;;;;;;;;8823232;40;10341;-62
2021/06/20 21:23:09;;;;;;;;;36.33;34.33;;;;;;;;8823400;40;10048;-62
2021/06/20 21:29:11;;;;;;;;;34.33;32.67;;;;;;;;8821770;40;10010;-62
2021/06/20 21:35:14;;;;;;;;;37.67;36.00;;;;;;;;8829878;40;10097;-61
2021/06/20 21:41:21;;;;;;;;;27.33;26.00;;;;;;;;8822272;40;10427;-62
2021/06/20 21:47:23;;;;;;;;;26.00;26.00;;;;;;;;8823160;40;10645;-62
2021/06/20 21:53:25;;;;;;;;;25.00;23.00;;;;;;;;8821784;40;10375;-62
2021/06/20 21:59:27;;;;;;;;;25.00;25.00;;;;;;;;8820259;40;10103;-62
2021/06/20 22:05:29;;;;;;;;;23.67;22.33;;;;;;;;8821593;40;10063;-61
2021/06/20 22:11:31;;;;;;;;;24.67;22.67;;;;;;;;8821785;40;10057;-60
2021/06/20 22:17:33;;;;;;;;;27.33;25.00;;;;;;;;8822476;40;10772;-61
2021/06/20 22:23:35;;;;;;;;;24.00;22.00;;;;;;;;8820961;40;9987;-61
2021/06/20 22:29:37;;;;;;;;;21.75;21.00;;;;;;;;8820564;40;11057;-61
2021/06/20 22:35:39;;;;;;;;;19.33;19.33;;;;;;;;8823258;40;10043;-60
2021/06/20 22:41:41;;;;;;;;;24.33;24.33;;;;;;;;8824782;40;10554;-60
2021/06/20 22:47:43;;;;;;;;;24.67;23.00;;;;;;;;8824767;40;10074;-61
2021/06/20 22:53:45;;;;;;;;;24.33;23.67;;;;;;;;8825474;40;10645;-60
2021/06/20 22:59:48;;;;;;;;;20.25;20.25;;;;;;;;8824674;40;10937;-60
2021/06/20 23:05:50;;;;;;;;;23.00;23.00;;;;;;;;8824555;40;10250;-60
2021/06/20 23:11:52;;;;;;;;;23.33;23.00;;;;;;;;8823457;40;10354;-61
2021/06/20 23:17:54;;;;;;;;;20.33;19.33;;;;;;;;8824246;40;10636;-61
2021/06/20 23:23:56;;;;;;;;;24.33;24.00;;;;;;;;8824411;40;10629;-62
2021/06/20 23:29:59;;;;;;;;;20.00;18.33;;;;;;;;8823733;40;10691;-61
2021/06/20 23:36:01;;;;;;;;;21.00;18.67;;;;;;;;8825401;40;10547;-62
2021/06/20 23:42:04;;;;;;;;;24.00;22.50;;;;;;;;8823034;40;10832;-61
2021/06/20 23:48:06;;;;;;;;;16.00;15.33;;;;;;;;8823717;40;10384;-62
2021/06/20 23:54:09;;;;;;;;;20.00;17.67;;;;;;;;8823577;40;10711;-61
